Athens Ben Epps Airport Athens US
ICAO: KAHN
IATA: AHN
Category: Medium
Scheduled Services: Yes

Elevation: 808 ft
TransAlt. 18000 ft.

Airport Communications:
ATLANTA APP/DEP:127.5
ASOS:132.875
ATLANTA CNTR:127.5
CTAF:126.3
GND:121.8
MACON RDO:109.6
TWR:126.3
UNICOM:122.95

KAHN Zoom In..

If you have problems with the map follow the link
https://www.worldairports.se/pages/airport.php?
ICAO=KAHN

Runways:

(A) RW 02 length 3955 ft width 100 ft
---- / hdg 24

(B) RW 09 length 5522 ft width 100 ft
---- / hdg 91

(C) RW 20 length 3955 ft width 100 ft
---- / hdg 204

(D) RW 27 length 5522 ft width 100 ft
ILS 110.95 / hdg 271

Location; KAHN
Day. 21 / Time. 06.51 Zulu
* Altimeter: 30.01
* Temperature: 12° c. 53.6°f.
* Wind from: 300° Speed 04 kn.
Dewpoint: 06° c.
Visibility: 10 Statute Miles.
Clouds: Clear (automated report).

KAHN 210651Z AUTO 30004KT 10SM CLR 12/06 A3001 RMK AO2 SLP161 T01220061


Wind From 300°
Speed 04 kn.

 
 
jpsmedia.com for Web Design worldairports.se 2018   terms of use